createdAt,value
2023-06-15T00:00:01.959Z,101476.84
2023-06-15T00:02:42.025Z,101473.50
2023-06-15T00:05:11.083Z,101477.56
2023-06-15T00:07:38.810Z,101480.41
2023-06-15T00:10:07.612Z,101478.59
2023-06-15T00:12:35.478Z,101489.06
2023-06-15T00:15:04.287Z,101476.78
2023-06-15T00:17:33.380Z,101482.09
2023-06-15T00:20:05.691Z,101465.03
2023-06-15T00:22:35.757Z,101480.66
2023-06-15T00:25:03.667Z,101470.63
2023-06-15T00:27:31.378Z,101474.41
2023-06-15T00:29:59.184Z,101484.56
2023-06-15T00:32:27.117Z,101480.88
2023-06-15T00:34:55.368Z,101494.19
2023-06-15T00:37:23.331Z,101493.31
2023-06-15T00:39:51.242Z,101484.56
2023-06-15T00:42:18.929Z,101489.13
2023-06-15T00:44:46.953Z,101482.31
2023-06-15T00:47:22.111Z,101484.00
2023-06-15T00:49:50.894Z,101488.56
2023-06-15T00:52:18.822Z,101484.56
2023-06-15T00:54:47.632Z,101495.16
2023-06-15T00:57:16.891Z,101486.09
2023-06-15T00:59:44.815Z,101492.91
2023-06-15T01:02:14.204Z,101493.69
2023-06-15T01:04:42.039Z,101488.66
2023-06-15T01:07:12.231Z,101491.06
2023-06-15T01:09:43.795Z,101494.28
2023-06-15T01:12:13.829Z,101493.94
2023-06-15T01:14:42.594Z,101487.22
2023-06-15T01:17:16.827Z,101496.72
2023-06-15T01:20:05.863Z,101496.91
2023-06-15T01:23:06.508Z,101495.97
2023-06-15T01:25:47.189Z,101498.31
2023-06-15T01:28:21.297Z,101490.94
2023-06-15T01:30:54.585Z,101498.69
2023-06-15T01:33:24.147Z,101498.56
2023-06-15T01:35:51.979Z,101495.53
2023-06-15T01:38:25.153Z,101491.53
2023-06-15T01:40:54.547Z,101490.38
2023-06-15T01:43:29.018Z,101498.88
2023-06-15T01:45:57.817Z,101490.69
2023-06-15T01:48:27.105Z,101487.41
2023-06-15T01:50:55.553Z,101475.25
2023-06-15T01:53:24.752Z,101483.91
2023-06-15T01:55:52.991Z,101478.09
2023-06-15T01:58:20.776Z,101484.75
2023-06-15T02:00:48.904Z,101481.50
2023-06-15T02:03:16.847Z,101484.06
2023-06-15T02:05:44.708Z,101486.31
2023-06-15T02:08:16.350Z,101483.66
2023-06-15T02:10:44.087Z,101478.25
2023-06-15T02:13:13.795Z,101478.16
2023-06-15T02:15:41.982Z,101483.44
2023-06-15T02:18:16.427Z,101485.03
2023-06-15T02:20:46.532Z,101486.50
2023-06-15T02:23:14.880Z,101493.25
2023-06-15T02:25:42.635Z,101483.66
2023-06-15T02:28:10.595Z,101489.88
2023-06-15T02:30:39.617Z,101482.44
2023-06-15T02:33:09.141Z,101483.44
2023-06-15T02:35:37.370Z,101478.06
2023-06-15T02:38:05.032Z,101471.91
2023-06-15T02:40:32.777Z,101473.03
2023-06-15T02:43:01.041Z,101469.38
2023-06-15T02:45:28.870Z,101467.19
2023-06-15T02:47:57.430Z,101463.34
2023-06-15T02:50:25.623Z,101469.50
2023-06-15T02:53:13.397Z,101469.88
2023-06-15T02:55:43.445Z,101466.44
2023-06-15T02:58:14.391Z,101473.00
2023-06-15T03:01:25.858Z,101477.22
2023-06-15T03:03:57.401Z,101482.09
2023-06-15T03:06:26.731Z,101485.81
2023-06-15T03:08:56.525Z,101491.66
2023-06-15T03:11:28.063Z,101498.91
2023-06-15T03:13:56.572Z,101504.69
2023-06-15T03:16:26.453Z,101491.44
2023-06-15T03:18:55.861Z,101498.88
2023-06-15T03:21:25.894Z,101501.31
2023-06-15T03:23:56.017Z,101494.72
2023-06-15T03:26:28.234Z,101494.06
2023-06-15T03:28:58.728Z,101484.75
2023-06-15T03:31:34.571Z,101486.94
2023-06-15T03:34:03.701Z,101484.72
2023-06-15T03:36:32.790Z,101480.88
2023-06-15T03:39:00.620Z,101491.19
2023-06-15T03:41:28.658Z,101483.78
2023-06-15T03:43:58.230Z,101486.50
2023-06-15T03:46:26.297Z,101481.75
2023-06-15T03:48:54.317Z,101487.78
2023-06-15T03:51:22.419Z,101483.81
2023-06-15T03:53:50.148Z,101485.94
2023-06-15T03:56:17.965Z,101497.88
2023-06-15T03:58:45.777Z,101498.19
2023-06-15T04:01:14.143Z,101492.47
2023-06-15T04:03:42.153Z,101496.59
2023-06-15T04:06:10.069Z,101497.56
2023-06-15T04:08:38.061Z,101490.38
2023-06-15T04:11:06.572Z,101487.13
2023-06-15T04:13:34.400Z,101486.13
2023-06-15T04:16:03.682Z,101487.94
2023-06-15T04:18:31.448Z,101483.97
2023-06-15T04:20:59.247Z,101492.00
2023-06-15T04:23:27.163Z,101486.84
2023-06-15T04:25:54.909Z,101486.81
2023-06-15T04:28:22.693Z,101498.41
2023-06-15T04:31:06.112Z,101492.06
2023-06-15T04:33:35.140Z,101492.06
2023-06-15T04:36:04.495Z,101504.03
2023-06-15T04:38:32.376Z,101503.97
2023-06-15T04:41:01.917Z,101492.66
2023-06-15T04:43:30.048Z,101502.22
2023-06-15T04:45:58.137Z,101508.84
2023-06-15T04:48:28.421Z,101510.25
2023-06-15T04:50:57.616Z,101508.53
2023-06-15T04:53:25.583Z,101513.50
2023-06-15T04:55:53.608Z,101508.00
2023-06-15T04:58:21.590Z,101519.88
2023-06-15T05:00:50.367Z,101514.34
2023-06-15T05:03:20.073Z,101509.91
2023-06-15T05:05:48.058Z,101517.81
2023-06-15T05:08:16.590Z,101514.34
2023-06-15T05:10:46.785Z,101505.97
2023-06-15T05:13:17.272Z,101512.38
2023-06-15T05:15:45.190Z,101508.06
2023-06-15T05:18:15.028Z,101503.69
2023-06-15T05:20:43.049Z,101503.31
2023-06-15T05:23:10.860Z,101506.50
2023-06-15T05:25:40.797Z,101503.31
2023-06-15T05:28:08.834Z,101511.56
2023-06-15T05:30:39.751Z,101504.63
2023-06-15T05:33:07.700Z,101517.44
2023-06-15T05:35:35.997Z,101515.03
2023-06-15T05:38:03.748Z,101507.81
2023-06-15T05:40:33.878Z,101506.72
2023-06-15T05:43:01.638Z,101512.19
2023-06-15T05:45:31.381Z,101510.41
2023-06-15T05:48:03.749Z,101516.38
2023-06-15T05:50:32.821Z,101513.50
2023-06-15T05:53:01.293Z,101513.66
2023-06-15T05:55:30.108Z,101508.44
2023-06-15T05:57:58.057Z,101512.00
2023-06-15T06:00:27.047Z,101509.16
2023-06-15T06:02:59.398Z,101520.00
2023-06-15T06:05:38.161Z,101520.06
2023-06-15T06:08:06.347Z,101518.50
2023-06-15T06:10:34.631Z,101518.31
2023-06-15T06:13:16.760Z,101523.69
2023-06-15T06:15:44.504Z,101520.25
2023-06-15T06:18:12.253Z,101517.03
2023-06-15T06:20:40.783Z,101515.03
2023-06-15T06:23:09.350Z,101519.91
2023-06-15T06:25:37.100Z,101520.75
2023-06-15T06:28:05.616Z,101516.78
2023-06-15T06:30:33.419Z,101517.97
2023-06-15T06:33:03.460Z,101510.72
2023-06-15T06:35:31.594Z,101513.38
2023-06-15T06:37:59.425Z,101507.84
2023-06-15T06:40:27.446Z,101511.66
2023-06-15T06:42:55.294Z,101504.72
2023-06-15T06:45:23.023Z,101511.13
2023-06-15T06:47:50.714Z,101507.97
2023-06-15T06:50:18.450Z,101507.38
2023-06-15T06:52:46.185Z,101507.19
2023-06-15T06:55:14.117Z,101505.19
2023-06-15T06:57:41.959Z,101503.66
2023-06-15T07:00:11.749Z,101502.44
2023-06-15T07:02:40.268Z,101501.84
2023-06-15T07:05:08.332Z,101498.50
2023-06-15T07:07:36.067Z,101495.13
2023-06-15T07:10:04.135Z,101500.38
2023-06-15T07:12:31.906Z,101493.50
2023-06-15T07:14:59.612Z,101508.34
2023-06-15T07:17:27.468Z,101494.16
2023-06-15T07:19:55.272Z,101493.56
2023-06-15T07:22:23.065Z,101499.31
2023-06-15T07:24:51.836Z,101498.13
2023-06-15T07:27:20.344Z,101496.53
2023-06-15T07:29:48.731Z,101495.34
2023-06-15T07:32:16.542Z,101486.09
2023-06-15T07:34:44.292Z,101488.75
2023-06-15T07:37:12.487Z,101483.72
2023-06-15T07:39:40.239Z,101484.66
2023-06-15T07:42:08.583Z,101484.63
2023-06-15T07:44:36.608Z,101470.97
2023-06-15T07:47:04.779Z,101480.72
2023-06-15T07:49:44.874Z,101478.69
2023-06-15T07:52:13.968Z,101480.59
2023-06-15T07:54:43.021Z,101474.91
2023-06-15T07:57:11.297Z,101478.34
2023-06-15T07:59:39.178Z,101470.59
2023-06-15T08:02:07.368Z,101480.28
2023-06-15T08:04:35.102Z,101474.03
2023-06-15T08:07:02.921Z,101479.22
2023-06-15T08:09:30.798Z,101475.16
2023-06-15T08:11:58.649Z,101477.75
2023-06-15T08:14:26.328Z,101473.75
2023-06-15T08:16:54.490Z,101471.13
2023-06-15T08:19:22.226Z,101475.22
2023-06-15T08:21:49.976Z,101473.34
2023-06-15T08:24:17.813Z,101468.91
2023-06-15T08:26:45.952Z,101477.31
2023-06-15T08:29:23.412Z,101482.34
2023-06-15T08:31:52.795Z,101472.16
2023-06-15T08:34:20.598Z,101475.78
2023-06-15T08:36:48.404Z,101476.66
2023-06-15T08:39:17.591Z,101481.59
2023-06-15T08:41:49.376Z,101473.00
2023-06-15T08:44:19.634Z,101478.63
2023-06-15T08:46:48.154Z,101483.00
2023-06-15T08:49:16.280Z,101474.53
2023-06-15T08:51:46.166Z,101470.53
2023-06-15T08:54:14.007Z,101471.41
2023-06-15T08:56:42.268Z,101466.97
2023-06-15T08:59:10.401Z,101471.25
2023-06-15T09:01:41.575Z,101465.00
2023-06-15T09:04:09.677Z,101468.84
2023-06-15T09:06:37.680Z,101469.41
2023-06-15T09:09:06.225Z,101459.34
2023-06-15T09:11:41.820Z,101467.00
2023-06-15T09:14:11.234Z,101466.19
2023-06-15T09:16:42.655Z,101457.63
2023-06-15T09:19:12.771Z,101454.00
2023-06-15T09:21:52.791Z,101455.53
2023-06-15T09:24:24.511Z,101453.97
2023-06-15T09:26:52.703Z,101458.28
2023-06-15T09:29:20.566Z,101452.31
2023-06-15T09:31:48.329Z,101454.25
2023-06-15T09:34:16.120Z,101449.34
2023-06-15T09:36:48.166Z,101451.19
2023-06-15T09:39:23.794Z,101442.13
2023-06-15T09:41:59.753Z,101439.00
2023-06-15T09:44:28.849Z,101439.03
2023-06-15T09:47:01.824Z,101435.19
2023-06-15T09:49:32.263Z,101432.00
2023-06-15T09:52:00.891Z,101431.94
2023-06-15T09:54:33.223Z,101428.06
2023-06-15T09:57:02.564Z,101427.66
2023-06-15T09:59:30.701Z,101434.59
2023-06-15T10:02:01.326Z,101417.84
2023-06-15T10:04:37.231Z,101419.88
2023-06-15T10:07:06.690Z,101423.78
2023-06-15T10:09:57.932Z,101409.13
2023-06-15T10:12:29.817Z,101417.16
2023-06-15T10:15:08.525Z,101411.53
2023-06-15T10:17:39.073Z,101414.66
2023-06-15T10:20:18.393Z,101424.69
2023-06-15T10:23:05.218Z,101417.00
2023-06-15T10:25:34.003Z,101401.75
2023-06-15T10:28:10.566Z,101397.91
2023-06-15T10:31:01.452Z,101412.28
2023-06-15T10:33:53.313Z,101415.59
2023-06-15T10:36:26.841Z,101411.91
2023-06-15T10:39:27.639Z,101407.13
2023-06-15T10:41:58.542Z,101415.09
2023-06-15T10:44:33.514Z,101412.91
2023-06-15T10:47:13.342Z,101409.75
2023-06-15T10:49:53.403Z,101412.03
2023-06-15T10:52:21.291Z,101410.47
2023-06-15T10:54:49.072Z,101429.09
2023-06-15T10:57:20.695Z,101416.34
2023-06-15T10:59:50.974Z,101417.22
2023-06-15T11:02:28.164Z,101412.50
2023-06-15T11:05:13.514Z,101408.84
2023-06-15T11:07:44.724Z,101403.88
2023-06-15T11:10:27.697Z,101398.00
2023-06-15T11:13:06.914Z,101399.69
2023-06-15T11:15:37.114Z,101392.66
2023-06-15T11:18:16.208Z,101396.19
2023-06-15T11:21:00.777Z,101385.31
2023-06-15T11:23:34.707Z,101376.66
2023-06-15T11:26:03.239Z,101383.28
2023-06-15T11:28:37.506Z,101376.63
2023-06-15T11:31:08.672Z,101379.69
2023-06-15T11:33:42.717Z,101380.72
2023-06-15T11:36:11.910Z,101369.38
2023-06-15T11:38:39.793Z,101372.22
2023-06-15T11:41:11.334Z,101376.13
2023-06-15T11:43:50.432Z,101380.19
2023-06-15T11:46:24.761Z,101375.69
2023-06-15T11:48:57.991Z,101375.53
2023-06-15T11:51:26.625Z,101371.25
2023-06-15T11:53:55.012Z,101383.72
2023-06-15T11:56:24.211Z,101385.66
2023-06-15T11:58:52.138Z,101373.34
2023-06-15T12:01:21.858Z,101372.53
2023-06-15T12:06:23.036Z,101374.19
2023-06-15T12:08:55.650Z,101361.97
2023-06-15T12:11:24.826Z,101364.25
2023-06-15T12:13:52.539Z,101373.56
2023-06-15T12:16:21.087Z,101371.97
2023-06-15T12:18:56.258Z,101364.34
2023-06-15T12:21:24.247Z,101356.38
2023-06-15T12:23:52.648Z,101357.63
2023-06-15T12:26:23.542Z,101358.09
2023-06-15T12:28:51.427Z,101354.69
2023-06-15T12:31:19.237Z,101351.75
2023-06-15T12:33:55.429Z,101357.34
2023-06-15T12:36:24.142Z,101355.28
2023-06-15T12:38:52.105Z,101347.59
2023-06-15T12:41:20.018Z,101345.94
2023-06-15T12:43:47.675Z,101344.56
2023-06-15T12:46:15.479Z,101346.25
2023-06-15T12:48:43.158Z,101341.03
2023-06-15T12:51:11.080Z,101338.66
2023-06-15T12:53:39.008Z,101337.28
2023-06-15T12:56:07.688Z,101339.84
2023-06-15T12:58:35.548Z,101330.00
2023-06-15T13:01:03.306Z,101337.34
2023-06-15T13:03:31.500Z,101342.03
2023-06-15T13:05:59.320Z,101335.63
2023-06-15T13:08:27.122Z,101343.41
2023-06-15T13:10:54.892Z,101330.00
2023-06-15T13:13:23.293Z,101335.31
2023-06-15T13:15:51.177Z,101329.94
2023-06-15T13:18:19.058Z,101327.03
2023-06-15T13:20:46.813Z,101322.63
2023-06-15T13:23:15.986Z,101320.16
2023-06-15T13:25:43.747Z,101323.78
2023-06-15T13:28:11.793Z,101322.38
2023-06-15T13:30:39.692Z,101318.25
2023-06-15T13:33:07.464Z,101321.84
2023-06-15T13:35:35.435Z,101312.38
2023-06-15T13:38:03.812Z,101317.41
2023-06-15T13:40:31.778Z,101321.03
2023-06-15T13:42:59.962Z,101312.81
2023-06-15T13:45:27.740Z,101317.88
2023-06-15T13:48:53.582Z,101312.63
2023-06-15T13:51:21.519Z,101320.41
2023-06-15T13:53:49.426Z,101317.69
2023-06-15T13:56:17.650Z,101314.91
2023-06-15T13:58:45.487Z,101311.38
2023-06-15T14:01:13.250Z,101313.66
2023-06-15T14:03:42.559Z,101315.91
2023-06-15T14:06:10.740Z,101310.22
2023-06-15T14:08:38.900Z,101305.06
2023-06-15T14:11:06.710Z,101303.63
2023-06-15T14:13:36.570Z,101307.03
2023-06-15T14:16:06.160Z,101311.38
2023-06-15T14:18:34.249Z,101304.00
2023-06-15T14:21:02.085Z,101296.56
2023-06-15T14:23:29.866Z,101287.41
2023-06-15T14:25:58.507Z,101305.97
2023-06-15T14:28:26.799Z,101301.72
2023-06-15T14:30:54.554Z,101296.81
2023-06-15T14:33:23.433Z,101302.06
2023-06-15T14:35:51.359Z,101287.97
2023-06-15T14:41:30.658Z,101288.75
2023-06-15T14:43:58.568Z,101294.56
2023-06-15T14:46:26.412Z,101285.50
2023-06-15T14:48:54.143Z,101276.84
2023-06-15T14:51:21.880Z,101280.22
2023-06-15T14:53:49.591Z,101279.81
2023-06-15T14:56:18.561Z,101284.63
2023-06-15T14:58:46.609Z,101279.16
2023-06-15T15:01:14.475Z,101280.44
2023-06-15T15:03:42.367Z,101281.28
2023-06-15T15:06:10.213Z,101276.44
2023-06-15T15:08:37.879Z,101271.47
2023-06-15T15:11:05.683Z,101270.22
2023-06-15T15:13:33.364Z,101265.72
2023-06-15T15:16:01.086Z,101266.22
2023-06-15T15:18:28.866Z,101281.09
2023-06-15T15:21:01.044Z,101275.34
2023-06-15T15:23:28.833Z,101276.03
2023-06-15T15:26:00.357Z,101271.84
2023-06-15T15:28:30.199Z,101275.69
2023-06-15T15:30:58.735Z,101274.75
2023-06-15T15:33:26.672Z,101263.31
2023-06-15T15:35:54.454Z,101262.06
2023-06-15T15:38:22.549Z,101256.44
2023-06-15T15:40:51.474Z,101265.59
2023-06-15T15:43:19.360Z,101260.31
2023-06-15T15:45:47.144Z,101260.00
2023-06-15T15:48:14.912Z,101256.13
2023-06-15T15:50:42.703Z,101248.88
2023-06-15T15:53:10.531Z,101252.59
2023-06-15T15:55:38.394Z,101247.91
2023-06-15T15:58:06.173Z,101248.22
2023-06-15T16:00:34.268Z,101252.59
2023-06-15T16:03:02.573Z,101255.47
2023-06-15T16:05:31.197Z,101252.88
2023-06-15T16:08:01.681Z,101249.66
2023-06-15T16:10:29.402Z,101254.22
2023-06-15T16:12:57.429Z,101248.25
2023-06-15T16:15:25.190Z,101250.00
2023-06-15T16:17:53.160Z,101240.56
2023-06-15T16:20:24.247Z,101248.56
2023-06-15T16:22:51.985Z,101246.69
2023-06-15T16:25:20.057Z,101246.09
2023-06-15T16:27:47.917Z,101245.50
2023-06-15T16:30:16.635Z,101245.56
2023-06-15T16:32:44.781Z,101252.09
2023-06-15T16:35:12.606Z,101241.63
2023-06-15T16:37:41.187Z,101241.53
2023-06-15T16:40:09.770Z,101241.09
2023-06-15T16:42:37.702Z,101240.47
2023-06-15T16:45:06.727Z,101238.03
2023-06-15T16:47:37.808Z,101234.03
2023-06-15T16:50:07.504Z,101240.66
2023-06-15T16:52:36.292Z,101240.97
2023-06-15T16:55:04.892Z,101227.25
2023-06-15T16:57:34.138Z,101230.47
2023-06-15T17:00:02.114Z,101224.84
2023-06-15T17:02:32.196Z,101225.81
2023-06-15T17:05:00.068Z,101227.03
2023-06-15T17:07:27.940Z,101225.91
2023-06-15T17:09:56.054Z,101224.44
2023-06-15T17:12:24.060Z,101223.41
2023-06-15T17:14:51.839Z,101218.41
2023-06-15T17:17:19.568Z,101229.22
2023-06-15T17:19:47.369Z,101226.88
2023-06-15T17:22:15.196Z,101233.41
2023-06-15T17:24:43.070Z,101238.97
2023-06-15T17:27:12.196Z,101233.00
2023-06-15T17:29:39.909Z,101230.25
2023-06-15T17:32:09.992Z,101238.59
2023-06-15T17:34:39.292Z,101239.81
2023-06-15T17:37:07.166Z,101241.22
2023-06-15T17:39:34.947Z,101234.25
2023-06-15T17:42:02.703Z,101234.25
2023-06-15T17:44:30.506Z,101239.81
2023-06-15T17:46:58.355Z,101237.03
2023-06-15T17:49:26.315Z,101239.47
2023-06-15T17:51:54.034Z,101239.28
2023-06-15T17:54:21.864Z,101238.63
2023-06-15T17:56:51.005Z,101232.63
2023-06-15T17:59:18.903Z,101234.50
2023-06-15T18:01:46.919Z,101237.22
2023-06-15T18:04:14.870Z,101238.88
2023-06-15T18:06:42.687Z,101234.03
2023-06-15T18:09:14.286Z,101234.91
2023-06-15T18:11:42.146Z,101237.03
2023-06-15T18:14:10.892Z,101235.13
2023-06-15T18:16:39.473Z,101237.63
2023-06-15T18:19:07.529Z,101228.41
2023-06-15T18:21:35.474Z,101221.91
2023-06-15T18:24:04.173Z,101232.84
2023-06-15T18:26:31.896Z,101234.50
2023-06-15T18:29:00.704Z,101237.63
2023-06-15T18:31:28.402Z,101235.56
2023-06-15T18:33:57.425Z,101228.59
2023-06-15T18:36:25.202Z,101227.97
2023-06-15T18:38:53.212Z,101237.78
2023-06-15T18:41:21.111Z,101231.69
2023-06-15T18:43:48.847Z,101238.41
2023-06-15T18:46:19.647Z,101237.59
2023-06-15T18:48:47.455Z,101240.41
2023-06-15T18:51:15.175Z,101242.63
2023-06-15T18:53:42.933Z,101238.72
2023-06-15T18:56:11.155Z,101238.47
2023-06-15T18:58:41.000Z,101236.28
2023-06-15T19:01:08.864Z,101243.50
2023-06-15T19:03:37.267Z,101237.81
2023-06-15T19:06:05.404Z,101235.91
2023-06-15T19:08:33.107Z,101229.41
2023-06-15T19:11:01.244Z,101242.94
2023-06-15T19:13:31.859Z,101251.63
2023-06-15T19:16:03.011Z,101248.28
2023-06-15T19:18:31.581Z,101260.28
2023-06-15T19:21:03.100Z,101253.28
2023-06-15T19:23:31.010Z,101258.75
2023-06-15T19:25:58.791Z,101263.72
2023-06-15T19:28:26.604Z,101262.78
2023-06-15T19:30:54.337Z,101267.78
2023-06-15T19:33:22.132Z,101260.75
2023-06-15T19:35:51.765Z,101259.59
2023-06-15T19:38:19.540Z,101251.78
2023-06-15T19:40:49.666Z,101262.09
2023-06-15T19:43:17.428Z,101262.75
2023-06-15T19:45:45.524Z,101253.97
2023-06-15T19:48:13.700Z,101260.06
2023-06-15T19:50:41.391Z,101271.44
2023-06-15T19:53:09.264Z,101274.28
2023-06-15T19:55:36.939Z,101270.19
2023-06-15T19:58:04.802Z,101265.59
2023-06-15T20:00:32.479Z,101261.81
2023-06-15T20:03:00.318Z,101256.31
2023-06-15T20:05:28.013Z,101261.28
2023-06-15T20:07:55.781Z,101265.03
2023-06-15T20:10:23.636Z,101262.41
2023-06-15T20:12:51.647Z,101270.97
2023-06-15T20:15:21.014Z,101268.78
2023-06-15T20:17:48.748Z,101269.50
2023-06-15T20:20:16.536Z,101262.66
2023-06-15T20:22:44.514Z,101271.41
2023-06-15T20:25:12.196Z,101275.78
2023-06-15T20:27:42.221Z,101266.38
2023-06-15T20:30:10.156Z,101273.88
2023-06-15T20:32:38.017Z,101273.78
2023-06-15T20:35:06.455Z,101271.22
2023-06-15T20:37:34.221Z,101284.44
2023-06-15T20:40:02.022Z,101290.91
2023-06-15T20:42:29.962Z,101289.72
2023-06-15T20:44:58.376Z,101292.47
2023-06-15T20:47:26.193Z,101285.00
2023-06-15T20:49:54.027Z,101279.06
2023-06-15T20:52:22.859Z,101274.16
2023-06-15T20:54:50.835Z,101273.31
2023-06-15T20:57:18.560Z,101267.38
2023-06-15T20:59:46.313Z,101272.81
2023-06-15T21:02:14.361Z,101272.34
2023-06-15T21:04:42.110Z,101282.34
2023-06-15T21:07:09.855Z,101275.34
2023-06-15T21:09:37.682Z,101265.34
2023-06-15T21:12:06.914Z,101265.69
2023-06-15T21:14:34.834Z,101266.59
2023-06-15T21:17:02.862Z,101262.88
2023-06-15T21:19:30.807Z,101263.25
2023-06-15T21:22:01.248Z,101270.59
2023-06-15T21:24:29.019Z,101266.59
2023-06-15T21:26:56.792Z,101265.56
2023-06-15T21:29:24.512Z,101271.09
2023-06-15T21:31:52.179Z,101270.47
2023-06-15T21:34:20.484Z,101265.22
2023-06-15T21:36:48.155Z,101258.38
2023-06-15T21:39:17.203Z,101249.38
2023-06-15T21:41:44.892Z,101236.44
2023-06-15T21:44:12.660Z,101254.25
2023-06-15T21:46:41.357Z,101252.66
2023-06-15T21:49:09.055Z,101255.00
2023-06-15T21:51:36.819Z,101260.69
2023-06-15T21:54:04.574Z,101247.38
2023-06-15T21:56:32.272Z,101245.78
2023-06-15T21:59:03.437Z,101247.69
2023-06-15T22:01:33.615Z,101249.97
2023-06-15T22:04:02.285Z,101248.06
2023-06-15T22:06:30.050Z,101238.66
2023-06-15T22:08:57.860Z,101243.44
2023-06-15T22:11:26.777Z,101245.19
2023-06-15T22:13:58.007Z,101232.94
2023-06-15T22:16:26.811Z,101232.22
2023-06-15T22:18:55.286Z,101232.78
2023-06-15T22:21:23.087Z,101241.00
2023-06-15T22:23:50.819Z,101246.81
2023-06-15T22:26:20.010Z,101233.91
2023-06-15T22:28:47.800Z,101233.25
2023-06-15T22:31:15.687Z,101245.91
2023-06-15T22:33:43.521Z,101235.31
2023-06-15T22:36:11.308Z,101227.41
2023-06-15T22:38:39.592Z,101234.50
2023-06-15T22:41:08.022Z,101234.41
2023-06-15T22:43:35.851Z,101232.78
2023-06-15T22:46:04.168Z,101243.88
2023-06-15T22:48:32.206Z,101240.03
2023-06-15T22:50:59.850Z,101259.59
2023-06-15T22:53:27.548Z,101256.19
2023-06-15T22:55:55.352Z,101253.59
2023-06-15T22:58:23.123Z,101252.16
2023-06-15T23:00:50.872Z,101249.38
2023-06-15T23:03:19.070Z,101248.00
2023-06-15T23:05:47.231Z,101237.88
2023-06-15T23:08:22.721Z,101243.84
2023-06-15T23:10:51.793Z,101237.97
2023-06-15T23:13:21.920Z,101236.44
2023-06-15T23:15:54.032Z,101228.41
2023-06-15T23:18:32.665Z,101230.09
2023-06-15T23:21:00.762Z,101228.91
2023-06-15T23:23:28.868Z,101227.38
2023-06-15T23:25:57.587Z,101219.28
2023-06-15T23:28:25.294Z,101222.09
2023-06-15T23:30:53.060Z,101213.38
2023-06-15T23:33:21.053Z,101215.09
2023-06-15T23:35:48.914Z,101215.69
2023-06-15T23:38:16.588Z,101218.06
2023-06-15T23:40:44.482Z,101217.53
2023-06-15T23:43:12.144Z,101212.13
2023-06-15T23:45:39.931Z,101208.75
2023-06-15T23:48:08.552Z,101206.78
2023-06-15T23:50:36.522Z,101200.56
2023-06-15T23:53:05.403Z,101209.75
2023-06-15T23:55:33.463Z,101207.69
2023-06-15T23:58:01.172Z,101210.38
